createdAt,value
2023-01-03T00:01:07.499Z,18.10
2023-01-03T00:11:17.440Z,16.90
2023-01-03T00:21:20.018Z,14.00
2023-01-03T00:31:22.892Z,12.00
2023-01-03T00:41:25.887Z,13.20
2023-01-03T00:51:31.195Z,14.00
2023-01-03T01:01:45.792Z,12.30
2023-01-03T01:11:50.407Z,13.10
2023-01-03T01:21:52.929Z,13.30
2023-01-03T01:31:55.623Z,13.50
2023-01-03T01:42:30.454Z,12.70
2023-01-03T01:52:38.963Z,13.20
2023-01-03T02:02:42.722Z,9.70
2023-01-03T02:13:08.224Z,16.10
2023-01-03T02:23:32.613Z,9.60
2023-01-03T02:34:01.177Z,8.70
2023-01-03T02:44:39.677Z,10.20
2023-01-03T02:54:46.771Z,12.50
2023-01-03T03:04:55.293Z,10.50
2023-01-03T03:14:58.614Z,9.40
2023-01-03T03:25:06.479Z,11.20
2023-01-03T03:35:14.588Z,11.60
2023-01-03T03:45:24.484Z,10.70
2023-01-03T03:55:49.987Z,9.70
2023-01-03T04:06:00.221Z,10.00
2023-01-03T04:16:03.953Z,13.60
2023-01-03T04:26:06.302Z,10.60
2023-01-03T04:36:09.435Z,9.00
2023-01-03T04:46:11.782Z,8.50
2023-01-03T04:56:14.152Z,10.10
2023-01-03T05:06:17.059Z,12.40
2023-01-03T05:16:19.410Z,11.60
2023-01-03T05:26:22.520Z,11.30
2023-01-03T05:36:24.897Z,10.30
2023-01-03T05:46:27.216Z,9.60
2023-01-03T05:56:31.358Z,8.90
2023-01-03T06:06:33.653Z,9.20
2023-01-03T06:16:54.961Z,9.30
2023-01-03T06:26:59.763Z,8.60
2023-01-03T06:37:02.092Z,7.40
2023-01-03T06:47:23.017Z,7.80
2023-01-03T06:57:27.327Z,7.10
2023-01-03T07:07:30.793Z,9.10
2023-01-03T07:17:33.561Z,6.80
2023-01-03T07:27:36.162Z,5.60
2023-01-03T07:37:38.463Z,5.40
2023-01-03T07:47:44.997Z,4.70
2023-01-03T07:57:47.443Z,6.10
2023-01-03T08:07:51.769Z,6.40
2023-01-03T08:17:54.400Z,6.20
2023-01-03T08:28:01.010Z,6.60
2023-01-03T08:38:06.419Z,5.70
2023-01-03T08:48:10.151Z,5.90
2023-01-03T08:58:12.687Z,6.00
2023-01-03T09:08:18.254Z,5.70
2023-01-03T09:18:20.807Z,5.20
2023-01-03T09:28:23.621Z,3.90
2023-01-03T09:38:26.043Z,3.70
2023-01-03T09:48:38.223Z,3.50
2023-01-03T09:59:01.224Z,3.80
2023-01-03T10:09:12.538Z,3.90
2023-01-03T10:19:33.491Z,3.30
2023-01-03T10:29:36.033Z,3.20
2023-01-03T10:39:40.559Z,2.70
2023-01-03T10:49:46.925Z,2.90
2023-01-03T10:59:50.804Z,2.70
2023-01-03T11:09:55.637Z,3.30
2023-01-03T11:19:58.248Z,3.00
2023-01-03T11:30:12.841Z,3.80
2023-01-03T11:40:52.213Z,4.40
2023-01-03T11:51:17.414Z,4.00
2023-01-03T12:01:54.805Z,3.40
2023-01-03T12:12:30.408Z,3.30
2023-01-03T12:22:41.704Z,3.00
2023-01-03T12:33:00.884Z,3.10
2023-01-03T12:43:24.926Z,3.20
2023-01-03T12:53:43.621Z,4.00
2023-01-03T13:03:57.891Z,4.40
2023-01-03T13:14:20.678Z,23.70
2023-01-03T13:24:50.955Z,8.00
2023-01-03T13:34:56.476Z,3.60
2023-01-03T13:45:10.844Z,3.70
2023-01-03T13:55:55.106Z,4.50
2023-01-03T14:06:14.919Z,4.30
2023-01-03T14:16:35.794Z,5.90
2023-01-03T14:26:38.266Z,7.30
2023-01-03T14:36:48.206Z,10.90
2023-01-03T14:46:54.079Z,10.30
2023-01-03T14:56:56.874Z,10.70
2023-01-03T15:07:13.224Z,8.10
2023-01-03T15:17:19.891Z,7.10
2023-01-03T15:27:38.961Z,10.10
2023-01-03T15:37:43.711Z,14.10
2023-01-03T15:47:48.736Z,12.70
2023-01-03T15:57:53.926Z,27.00
2023-01-03T16:07:57.380Z,25.10
2023-01-03T16:18:10.089Z,27.40
2023-01-03T16:28:13.862Z,33.20
2023-01-03T16:38:17.563Z,41.00
2023-01-03T16:48:23.668Z,72.40
2023-01-03T16:58:26.576Z,38.70
2023-01-03T17:08:45.964Z,35.90
2023-01-03T17:18:50.643Z,28.40
2023-01-03T17:28:55.543Z,30.60
2023-01-03T17:39:02.785Z,24.50
2023-01-03T17:49:25.107Z,24.60
2023-01-03T17:59:28.723Z,19.30
2023-01-03T18:09:32.686Z,13.90
2023-01-03T18:19:36.051Z,13.90
2023-01-03T18:30:00.595Z,19.20
2023-01-03T18:40:08.359Z,16.60
2023-01-03T18:50:19.087Z,11.30
2023-01-03T19:00:28.172Z,12.10
2023-01-03T19:10:31.625Z,11.60
2023-01-03T19:20:37.103Z,11.60
2023-01-03T19:30:46.256Z,11.30
2023-01-03T19:40:50.096Z,19.60
2023-01-03T19:50:53.955Z,17.30
2023-01-03T20:00:59.176Z,37.70
2023-01-03T20:11:08.373Z,26.00
2023-01-03T20:21:23.598Z,21.00
2023-01-03T20:31:29.098Z,27.80
2023-01-03T20:41:37.191Z,34.90
2023-01-03T20:51:41.232Z,26.40
2023-01-03T21:02:21.343Z,21.30
2023-01-03T21:12:37.786Z,23.40
2023-01-03T21:22:43.491Z,30.30
2023-01-03T21:32:47.072Z,22.50
2023-01-03T21:43:04.113Z,20.40
2023-01-03T21:53:16.905Z,17.30
2023-01-03T22:03:38.953Z,27.30
2023-01-03T22:13:42.552Z,29.40
2023-01-03T22:23:45.224Z,36.30
2023-01-03T22:33:48.755Z,30.20
2023-01-03T22:43:53.051Z,27.50
2023-01-03T22:53:56.804Z,25.80
2023-01-03T23:04:00.833Z,29.10
2023-01-03T23:14:07.211Z,21.30
2023-01-03T23:24:13.415Z,23.30
2023-01-03T23:34:15.894Z,26.30
2023-01-03T23:44:18.640Z,22.10
2023-01-03T23:54:21.577Z,21.00
